Terminal Aerodrome Forecast
Issued by NWS

Current Version | Previous Version | Text Only | Print | Product List | Glossary On
Versions: 1 2 3 4 5 6 7 8 9 10 11 12 13 14 15 16 17
131
FTUS42 KTAE 281408 AAA
TAFVLD
TAF AMD
KVLD 281408Z 2814/2912 00000KT P6SM OVC015
     FM281500 18008KT P6SM SCT030=

USA.gov is the U.S. government's official web portal to all federal, state and local government web resources and services.